Time;durP1;ratioP1;P1;durP2;ratioP2;P2;SDS_P1;SDS_P2;PMS_P1;PMS_P2;Temp;Humidity;BMP_temperature;BMP_pressure;BME280_temperature;BME280_humidity;BME280_pressure;Samples;Min_cycle;Max_cycle;Signal;HPM_P1;HPM_P2
2023/06/23 00:01:54;;;;;;;10.37;6.67;;;;;;;19.11;76.15;101696.56;5070394;28;20049;-66
2023/06/23 00:04:22;;;;;;;10.75;6.65;;;;;;;19.03;76.92;101700.28;5074809;28;20056;-65
2023/06/23 00:06:49;;;;;;;12.68;6.65;;;;;;;18.62;79.92;101703.22;5057273;28;20484;-66
2023/06/23 00:09:17;;;;;;;9.30;6.90;;;;;;;18.77;79.49;101695.00;5074835;28;20048;-66
2023/06/23 00:11:45;;;;;;;8.70;6.75;;;;;;;18.85;79.02;101698.84;5063213;28;20048;-67
2023/06/23 00:14:13;;;;;;;11.15;6.70;;;;;;;19.04;79.43;101699.94;5094685;28;20048;-65
2023/06/23 00:16:40;;;;;;;12.73;6.78;;;;;;;19.36;77.77;101698.25;5083668;28;20056;-65
2023/06/23 00:19:08;;;;;;;10.55;6.72;;;;;;;19.26;77.04;101698.69;5072741;28;20052;-65
2023/06/23 00:21:35;;;;;;;8.45;6.57;;;;;;;19.50;76.40;101701.50;5072198;28;20063;-64
2023/06/23 00:24:02;;;;;;;11.75;6.60;;;;;;;19.50;76.46;101709.06;5068479;28;20053;-65
2023/06/23 00:26:30;;;;;;;12.27;6.38;;;;;;;19.71;75.40;101701.38;5069942;28;20169;-65
2023/06/23 00:28:58;;;;;;;10.20;6.88;;;;;;;19.30;76.98;101713.59;5079944;28;20047;-65
2023/06/23 00:31:25;;;;;;;11.02;6.70;;;;;;;19.31;76.54;101711.63;5080295;28;20036;-65
2023/06/23 00:33:52;;;;;;;11.93;6.53;;;;;;;19.12;76.75;101712.16;5062715;28;20043;-65
2023/06/23 00:36:20;;;;;;;10.98;6.55;;;;;;;19.31;76.72;101708.84;5071121;28;20053;-64
2023/06/23 00:38:47;;;;;;;8.85;6.63;;;;;;;19.43;78.15;101704.06;5060415;28;20496;-64
2023/06/23 00:41:16;;;;;;;8.97;6.53;;;;;;;19.48;78.08;101705.81;5066362;28;20048;-64
2023/06/23 00:43:49;;;;;;;11.43;6.60;;;;;;;19.33;76.21;101698.97;5052405;28;20059;-64
2023/06/23 00:46:19;;;;;;;12.20;6.32;;;;;;;19.44;76.64;101702.91;5056899;28;20048;-64
2023/06/23 00:48:50;;;;;;;10.02;6.47;;;;;;;19.33;75.34;101698.13;5066410;28;20442;-65
2023/06/23 00:51:17;;;;;;;8.93;6.38;;;;;;;19.10;76.58;101697.72;5052460;28;20040;-64
2023/06/23 00:53:48;;;;;;;11.75;6.70;;;;;;;19.22;76.70;101697.75;5053431;28;20053;-64
2023/06/23 00:56:18;;;;;;;11.23;6.50;;;;;;;19.20;77.55;101699.25;5054490;28;20049;-64
2023/06/23 00:58:45;;;;;;;7.82;5.70;;;;;;;19.17;77.28;101694.34;5070104;28;20051;-64
2023/06/23 01:01:13;;;;;;;11.65;6.60;;;;;;;19.60;76.26;101701.03;5052181;28;20045;-64
2023/06/23 01:03:43;;;;;;;8.90;6.32;;;;;;;19.63;75.30;101705.91;5053513;28;20721;-65
2023/06/23 01:06:18;;;;;;;11.85;7.32;;;;;;;19.41;75.55;101708.38;5066034;28;20527;-64
2023/06/23 01:08:57;;;;;;;11.10;6.90;;;;;;;19.64;75.31;101703.94;5069593;28;20063;-64
2023/06/23 01:11:32;;;;;;;10.30;6.63;;;;;;;19.55;74.81;101706.88;5072261;28;20562;-65
2023/06/23 01:14:47;;;;;;;12.35;7.35;;;;;;;19.65;74.93;101711.19;5072466;28;20055;-63
2023/06/23 01:17:24;;;;;;;13.63;7.00;;;;;;;19.83;74.38;101718.97;5054113;28;20431;-64
2023/06/23 01:20:21;;;;;;;11.45;6.68;;;;;;;19.74;74.82;101704.28;5051327;28;20408;-61
2023/06/23 01:23:18;;;;;;;10.98;7.28;;;;;;;19.66;75.13;101710.00;5052865;28;20065;-61
2023/06/23 01:26:02;;;;;;;12.63;7.70;;;;;;;19.42;75.77;101712.81;5056007;28;20063;-61
2023/06/23 01:28:29;;;;;;;9.75;7.38;;;;;;;19.33;76.76;101718.50;5071138;28;20040;-60
2023/06/23 01:30:57;;;;;;;11.48;7.30;;;;;;;19.42;76.64;101722.00;5047010;28;20052;-65
2023/06/23 01:33:30;;;;;;;11.05;7.57;;;;;;;19.01;77.89;101717.38;5049498;28;20049;-63
2023/06/23 01:36:05;;;;;;;11.70;7.53;;;;;;;19.12;78.64;101726.13;5052186;28;20053;-62
2023/06/23 01:38:36;;;;;;;12.60;7.30;;;;;;;19.01;78.76;101727.72;5042291;28;20056;-61
2023/06/23 01:41:09;;;;;;;8.45;6.80;;;;;;;19.10;78.69;101728.44;5058082;28;20044;-64
2023/06/23 01:43:37;;;;;;;11.32;7.47;;;;;;;18.90;79.42;101730.16;5055185;28;20057;-64
2023/06/23 01:46:08;;;;;;;12.98;7.30;;;;;;;18.99;78.75;101730.03;5071655;28;20041;-64
2023/06/23 01:48:39;;;;;;;16.58;7.30;;;;;;;18.89;79.47;101731.31;5051155;28;20049;-61
2023/06/23 01:51:06;;;;;;;11.43;7.28;;;;;;;18.86;79.29;101736.78;5053282;28;20053;-60
2023/06/23 01:53:34;;;;;;;11.10;7.40;;;;;;;18.73;80.49;101735.91;5064009;28;20060;-64
2023/06/23 01:56:03;;;;;;;9.32;6.72;;;;;;;18.87;79.43;101739.22;5062938;28;20063;-64
2023/06/23 01:58:33;;;;;;;7.93;6.63;;;;;;;18.65;80.01;101747.16;5071883;28;20052;-61
2023/06/23 02:01:02;;;;;;;10.52;6.80;;;;;;;18.54;79.42;101745.94;5071050;28;20048;-62
2023/06/23 02:03:30;;;;;;;17.38;6.88;;;;;;;18.09;80.75;101745.78;5054799;28;20484;-64
2023/06/23 02:05:58;;;;;;;10.02;6.22;;;;;;;18.07;81.70;101758.44;5055261;28;20052;-65
2023/06/23 02:08:27;;;;;;;9.73;6.50;;;;;;;18.03;82.12;101760.28;5072051;28;20044;-61
2023/06/23 02:10:55;;;;;;;9.50;6.35;;;;;;;18.15;80.74;101755.56;5070698;28;20575;-61
2023/06/23 02:13:24;;;;;;;10.55;6.40;;;;;;;18.52;79.97;101760.25;5071732;28;20052;-60
2023/06/23 02:15:53;;;;;;;8.93;6.05;;;;;;;18.48;79.73;101758.47;5074400;28;20051;-64
2023/06/23 02:18:21;;;;;;;9.73;6.20;;;;;;;18.29;80.60;101756.13;5077836;28;20281;-64
2023/06/23 02:20:50;;;;;;;8.32;5.80;;;;;;;18.31;80.04;101753.00;5073944;28;20180;-64
2023/06/23 02:23:18;;;;;;;10.02;5.93;;;;;;;18.38;79.55;101756.06;5077213;28;20048;-64
2023/06/23 02:25:48;;;;;;;9.73;6.25;;;;;;;18.28;81.41;101762.06;5077027;28;20040;-63
2023/06/23 02:28:15;;;;;;;11.15;6.55;;;;;;;18.14;80.25;101751.16;5059002;28;20048;-61
2023/06/23 02:30:44;;;;;;;9.02;6.25;;;;;;;18.24;81.19;101747.97;5055182;28;20408;-62
2023/06/23 02:33:11;;;;;;;12.10;6.25;;;;;;;18.16;80.59;101743.28;5038609;28;20075;-64
2023/06/23 02:35:41;;;;;;;13.05;6.20;;;;;;;18.21;80.52;101751.44;5039408;28;20057;-61
2023/06/23 02:38:12;;;;;;;14.55;6.80;;;;;;;18.11;80.36;101760.22;5057090;28;20060;-60
2023/06/23 02:40:42;;;;;;;11.02;7.45;;;;;;;18.03;81.81;101763.06;5055477;28;20045;-61
2023/06/23 02:43:23;;;;;;;11.18;7.20;;;;;;;17.96;83.49;101769.16;5054723;28;20049;-61
2023/06/23 02:45:54;;;;;;;12.07;7.55;;;;;;;17.87;83.71;101768.38;5023430;28;20051;-63
2023/06/23 02:48:30;;;;;;;12.85;7.05;;;;;;;18.15;83.68;101768.72;5037703;28;20060;-63
2023/06/23 02:50:58;;;;;;;11.48;6.50;;;;;;;18.23;81.95;101785.38;5057179;28;20052;-64
2023/06/23 02:53:29;;;;;;;10.77;7.18;;;;;;;18.32;82.23;101777.78;5047426;28;20586;-64
2023/06/23 02:56:03;;;;;;;11.30;7.20;;;;;;;18.21;82.48;101789.66;5083003;28;20056;-61
2023/06/23 02:58:31;;;;;;;10.80;7.07;;;;;;;18.08;83.48;101788.75;5057086;28;20754;-60
2023/06/23 03:01:01;;;;;;;12.32;7.10;;;;;;;18.18;81.89;101796.75;5058492;28;20045;-60
2023/06/23 03:03:30;;;;;;;12.10;7.10;;;;;;;18.15;80.90;101796.63;5074357;28;20083;-60
2023/06/23 03:05:57;;;;;;;13.52;8.38;;;;;;;17.94;82.74;101791.78;5076009;28;20052;-61
2023/06/23 03:08:25;;;;;;;11.15;7.50;;;;;;;18.01;82.67;101794.03;5074810;28;20614;-61
2023/06/23 03:10:54;;;;;;;12.25;7.78;;;;;;;17.83;82.92;101807.28;5075961;28;20049;-61
2023/06/23 03:13:22;;;;;;;13.20;8.13;;;;;;;17.88;83.31;101801.53;5057381;28;20064;-64
2023/06/23 03:15:54;;;;;;;13.25;7.68;;;;;;;18.07;81.59;101795.50;5075859;28;20045;-63
2023/06/23 03:18:24;;;;;;;12.00;8.23;;;;;;;17.98;82.76;101789.97;5076458;28;20503;-64
2023/06/23 03:20:52;;;;;;;13.10;8.23;;;;;;;17.66;82.59;101798.19;5074037;28;20041;-64
2023/06/23 03:23:21;;;;;;;13.10;8.02;;;;;;;17.80;84.18;101794.00;5074057;28;20048;-61
2023/06/23 03:25:49;;;;;;;11.50;7.78;;;;;;;17.85;84.72;101779.06;5054840;28;20057;-64
2023/06/23 03:28:19;;;;;;;11.50;7.93;;;;;;;17.77;83.90;101788.28;5054355;28;20733;-65
2023/06/23 03:31:02;;;;;;;12.73;7.80;;;;;;;17.62;85.45;101786.91;5054051;28;20072;-64
2023/06/23 03:33:33;;;;;;;15.30;8.13;;;;;;;17.45;85.02;101794.47;5055424;28;20052;-62
2023/06/23 03:36:17;;;;;;;15.55;8.43;;;;;;;17.50;87.41;101800.72;5068271;28;20063;-60
2023/06/23 03:38:49;;;;;;;14.55;9.20;;;;;;;17.23;86.57;101812.22;5069902;28;20059;-60
2023/06/23 03:41:17;;;;;;;14.18;8.65;;;;;;;17.16;87.12;101817.50;5053804;28;20228;-64
2023/06/23 03:43:52;;;;;;;14.75;9.10;;;;;;;17.11;88.00;101812.09;5070158;28;20045;-61
2023/06/23 03:46:38;;;;;;;12.15;9.23;;;;;;;17.19;86.74;101816.81;5073954;28;20059;-64
2023/06/23 03:49:06;;;;;;;14.90;8.35;;;;;;;17.12;88.01;101819.28;5074148;28;20412;-64
2023/06/23 03:51:34;;;;;;;13.25;8.13;;;;;;;17.25;87.01;101825.81;5074871;28;20051;-61
2023/06/23 03:54:02;;;;;;;13.23;8.85;;;;;;;17.28;87.74;101822.34;5074127;28;20118;-61
2023/06/23 03:56:32;;;;;;;13.27;8.25;;;;;;;17.42;87.44;101820.19;5073903;28;20530;-64
2023/06/23 03:59:02;;;;;;;13.02;7.75;;;;;;;17.53;88.13;101818.72;5074947;28;20650;-64
2023/06/23 04:01:30;;;;;;;11.23;7.28;;;;;;;17.43;88.82;101819.88;5075249;28;20055;-61
2023/06/23 04:03:58;;;;;;;14.57;7.93;;;;;;;17.21;87.86;101808.94;5074074;28;20057;-64
2023/06/23 04:06:27;;;;;;;12.00;7.78;;;;;;;17.17;87.36;101819.13;5057116;28;20052;-64
2023/06/23 04:08:54;;;;;;;12.88;8.25;;;;;;;17.12;88.42;101822.06;5073618;28;20055;-60
2023/06/23 04:11:22;;;;;;;13.77;7.68;;;;;;;17.34;88.14;101830.22;5073637;28;20052;-60
2023/06/23 04:13:51;;;;;;;13.63;7.75;;;;;;;17.18;87.90;101837.47;5070278;28;20064;-61
2023/06/23 04:16:19;;;;;;;14.02;7.68;;;;;;;17.27;88.38;101837.44;5065995;28;20052;-61
2023/06/23 04:18:47;;;;;;;14.77;7.85;;;;;;;17.39;87.09;101852.34;5069313;28;20056;-62
2023/06/23 04:21:15;;;;;;;12.77;7.78;;;;;;;17.29;87.41;101858.25;5057803;28;20048;-64
2023/06/23 04:23:44;;;;;;;12.20;7.88;;;;;;;17.26;88.03;101861.69;5070295;28;20426;-65
2023/06/23 04:26:12;;;;;;;13.32;8.27;;;;;;;17.37;87.57;101848.22;5054610;28;20072;-64
2023/06/23 04:28:43;;;;;;;13.00;7.90;;;;;;;17.48;86.69;101842.03;5064598;28;20040;-61
2023/06/23 04:31:11;;;;;;;10.75;7.47;;;;;;;17.64;85.65;101848.66;5058048;28;20040;-64
2023/06/23 04:33:38;;;;;;;12.27;7.13;;;;;;;17.91;85.17;101853.81;5072429;28;20064;-60
2023/06/23 04:36:12;;;;;;;11.60;7.03;;;;;;;17.86;84.13;101853.19;5056927;28;20048;-62
2023/06/23 04:38:50;;;;;;;10.73;7.13;;;;;;;18.04;84.01;101842.75;5071745;28;20048;-61
2023/06/23 04:41:19;;;;;;;14.45;7.22;;;;;;;17.99;83.72;101847.34;5037476;28;20064;-61
2023/06/23 04:43:50;;;;;;;15.65;7.13;;;;;;;18.12;83.73;101856.66;5072042;28;20057;-64
2023/06/23 04:46:22;;;;;;;11.75;7.03;;;;;;;18.10;83.02;101860.94;5072934;28;20491;-64
2023/06/23 04:48:55;;;;;;;13.60;6.78;;;;;;;17.77;85.07;101867.16;5073022;28;20064;-61
2023/06/23 04:51:27;;;;;;;12.02;6.97;;;;;;;17.69;85.80;101864.41;5072843;28;20047;-62
2023/06/23 04:54:26;;;;;;;11.30;7.28;;;;;;;17.94;84.87;101867.06;5052707;28;20041;-62
2023/06/23 04:57:02;;;;;;;15.48;7.38;;;;;;;17.84;85.16;101884.16;5060462;28;20685;-61
2023/06/23 04:59:32;;;;;;;12.32;6.70;;;;;;;17.88;86.24;101889.91;5056810;28;20075;-61
2023/06/23 05:02:02;;;;;;;12.75;6.80;;;;;;;18.19;85.25;101886.78;5056035;28;20049;-65
2023/06/23 05:04:33;;;;;;;14.23;6.60;;;;;;;18.20;83.82;101885.66;5055597;28;20044;-60
2023/06/23 05:07:10;;;;;;;13.15;6.00;;;;;;;18.37;82.74;101883.59;5073919;28;20052;-64
2023/06/23 05:09:38;;;;;;;11.30;6.15;;;;;;;18.02;84.24;101878.50;5072399;28;20063;-64
2023/06/23 05:12:07;;;;;;;13.35;7.60;;;;;;;18.19;85.23;101884.00;5072505;28;20048;-64
2023/06/23 05:14:37;;;;;;;16.08;6.85;;;;;;;18.06;84.30;101879.50;5072649;28;20071;-64
2023/06/23 05:17:05;;;;;;;10.93;6.88;;;;;;;18.11;84.77;101887.66;5063422;28;20706;-62
2023/06/23 05:19:34;;;;;;;14.90;6.63;;;;;;;18.16;83.92;101887.47;5056141;28;20053;-62
2023/06/23 05:22:08;;;;;;;12.13;6.97;;;;;;;18.25;85.44;101888.25;5073997;28;20048;-61
2023/06/23 05:24:37;;;;;;;10.13;6.55;;;;;;;18.21;84.78;101890.06;5073675;28;20049;-61
2023/06/23 05:27:08;;;;;;;9.68;6.22;;;;;;;18.18;84.75;101901.91;5073633;28;20048;-61
2023/06/23 05:29:38;;;;;;;11.85;6.40;;;;;;;18.21;85.38;101896.47;5074033;28;20484;-65
2023/06/23 05:32:06;;;;;;;12.13;6.22;;;;;;;18.03;84.45;101905.25;5072001;28;20492;-64
2023/06/23 05:34:35;;;;;;;10.48;6.10;;;;;;;18.23;84.77;101901.72;5065013;28;20048;-64
2023/06/23 05:37:03;;;;;;;10.93;6.57;;;;;;;18.46;84.00;101894.72;5071622;28;20056;-64
2023/06/23 05:39:31;;;;;;;10.45;5.63;;;;;;;18.71;81.81;101896.50;5065147;28;20416;-63
2023/06/23 05:41:58;;;;;;;9.80;6.00;;;;;;;18.80;80.91;101900.88;5052849;28;20048;-65
2023/06/23 05:44:27;;;;;;;13.52;6.35;;;;;;;18.82;80.82;101897.75;5062776;28;20549;-64
2023/06/23 05:46:57;;;;;;;14.52;6.88;;;;;;;18.75;80.10;101898.28;5055537;28;20053;-66
2023/06/23 05:49:25;;;;;;;11.18;5.93;;;;;;;18.66;80.19;101891.13;5057558;28;20052;-65
2023/06/23 05:52:01;;;;;;;10.68;6.20;;;;;;;18.53;80.95;101895.00;5055723;28;20044;-65
2023/06/23 05:54:31;;;;;;;8.73;6.25;;;;;;;18.57;80.98;101890.34;5087805;28;20051;-65
2023/06/23 05:57:02;;;;;;;10.73;6.53;;;;;;;18.65;82.21;101887.53;5067980;28;20439;-65
2023/06/23 05:59:37;;;;;;;11.07;7.05;;;;;;;18.69;80.80;101899.63;5071304;28;20420;-64
2023/06/23 06:02:08;;;;;;;12.73;6.50;;;;;;;18.81;80.68;101898.91;5046170;28;20511;-64
2023/06/23 06:04:38;;;;;;;11.13;6.15;;;;;;;18.79;80.71;101902.00;5051808;28;20045;-64
2023/06/23 06:07:05;;;;;;;15.98;7.15;;;;;;;18.88;80.37;101908.34;5051889;28;20052;-61
2023/06/23 06:09:33;;;;;;;12.77;6.95;;;;;;;18.53;81.42;101898.59;5051338;28;20080;-62
2023/06/23 06:12:02;;;;;;;12.32;6.70;;;;;;;18.15;83.72;101906.16;5051494;28;20049;-62
2023/06/23 06:14:30;;;;;;;10.80;6.15;;;;;;;17.90;86.15;101916.28;5063046;28;20049;-62
2023/06/23 06:16:59;;;;;;;13.75;6.60;;;;;;;18.07;85.35;101922.94;5079070;28;20044;-63
2023/06/23 06:19:27;;;;;;;11.18;5.72;;;;;;;18.40;85.16;101913.63;5073426;28;20051;-62
2023/06/23 06:21:56;;;;;;;13.80;6.43;;;;;;;18.64;83.07;101916.59;5081881;28;20055;-62
2023/06/23 06:24:24;;;;;;;12.10;7.00;;;;;;;19.06;83.23;101911.81;5058790;28;20041;-61
2023/06/23 06:26:56;;;;;;;18.73;6.97;;;;;;;18.78;82.09;101919.94;5060425;28;20057;-61
2023/06/23 06:29:24;;;;;;;13.75;6.88;;;;;;;18.77;81.79;101920.28;5071294;28;20539;-61
2023/06/23 06:31:54;;;;;;;12.55;6.80;;;;;;;19.07;83.38;101919.84;5053958;28;20083;-62
2023/06/23 06:34:23;;;;;;;13.43;6.55;;;;;;;19.05;85.11;101922.19;5069640;28;20044;-63
2023/06/23 06:36:51;;;;;;;10.48;6.82;;;;;;;18.78;82.98;101913.53;5068951;28;20095;-63
2023/06/23 06:39:19;;;;;;;16.27;6.80;;;;;;;19.46;85.65;101920.50;5072142;28;20521;-63
2023/06/23 06:41:47;;;;;;;9.55;5.35;;;;;;;19.77;79.52;101918.06;5056060;28;20056;-63
2023/06/23 06:44:15;;;;;;;11.45;6.80;;;;;;;19.72;78.81;101918.25;5033244;28;20721;-63
2023/06/23 06:46:44;;;;;;;8.73;6.53;;;;;;;19.72;78.92;101913.50;5059126;28;20408;-62
2023/06/23 06:49:13;;;;;;;12.75;6.50;;;;;;;19.83;75.41;101922.25;5053257;28;20064;-64
2023/06/23 06:51:40;;;;;;;15.63;7.15;;;;;;;20.09;75.68;101920.78;5050926;28;20037;-64
2023/06/23 06:54:08;;;;;;;12.40;6.30;;;;;;;20.39;74.87;101913.00;5062000;28;20044;-63
2023/06/23 06:56:35;;;;;;;12.65;6.00;;;;;;;20.57;72.18;101910.78;5066306;28;20060;-62
2023/06/23 06:59:03;;;;;;;11.27;6.07;;;;;;;20.73;71.07;101909.69;5071072;28;20048;-62
2023/06/23 07:01:31;;;;;;;12.90;6.40;;;;;;;20.77;71.18;101915.41;5068648;28;20571;-63
2023/06/23 07:03:59;;;;;;;15.73;7.10;;;;;;;19.52;76.04;101919.97;5054684;28;20052;-66
2023/06/23 07:06:26;;;;;;;19.60;6.35;;;;;;;19.53;77.45;101924.41;5051025;28;20053;-61
2023/06/23 07:08:53;;;;;;;11.23;6.78;;;;;;;19.57;76.52;101922.56;5055696;28;20060;-61
2023/06/23 07:11:21;;;;;;;15.70;7.15;;;;;;;19.57;77.54;101918.94;5051460;28;20567;-61
2023/06/23 07:13:48;;;;;;;15.00;6.22;;;;;;;20.03;76.93;101912.97;5055110;28;20045;-61
2023/06/23 07:16:16;;;;;;;12.70;7.18;;;;;;;20.13;74.34;101904.94;5068622;28;20486;-61
2023/06/23 07:18:43;;;;;;;16.02;7.25;;;;;;;20.17;74.96;101898.69;5075055;28;20165;-62
2023/06/23 07:21:11;;;;;;;12.55;6.32;;;;;;;20.38;74.11;101888.97;5064626;28;20079;-62
2023/06/23 07:23:38;;;;;;;11.93;6.60;;;;;;;20.48;73.31;101882.94;5066683;28;20064;-61
2023/06/23 07:26:06;;;;;;;16.05;6.82;;;;;;;20.57;73.48;101888.41;5055580;28;20060;-62
2023/06/23 07:28:33;;;;;;;14.68;6.28;;;;;;;20.79;71.49;101896.28;5065573;28;20049;-64
2023/06/23 07:31:01;;;;;;;10.95;6.30;;;;;;;20.82;71.05;101889.94;5070677;28;20055;-61
2023/06/23 07:33:28;;;;;;;11.73;5.63;;;;;;;20.88;69.92;101888.56;5059951;28;20052;-61
2023/06/23 07:35:55;;;;;;;13.75;5.40;;;;;;;21.01;68.80;101887.34;5039528;28;20052;-63
2023/06/23 07:38:23;;;;;;;10.65;6.70;;;;;;;20.82;69.46;101901.16;5065216;28;20056;-60
2023/06/23 07:40:50;;;;;;;11.38;5.53;;;;;;;21.72;67.53;101892.97;5069622;28;20771;-63
2023/06/23 07:43:17;;;;;;;10.57;4.57;;;;;;;21.96;65.04;101892.84;5074172;28;20051;-62
2023/06/23 07:45:45;;;;;;;9.38;5.10;;;;;;;21.74;65.97;101894.22;5052977;28;20516;-62
2023/06/23 07:48:12;;;;;;;11.48;5.72;;;;;;;21.47;65.99;101911.09;5052411;28;20061;-68
2023/06/23 07:50:40;;;;;;;13.30;5.80;;;;;;;21.78;65.82;101897.16;5054130;28;20049;-66
2023/06/23 07:53:07;;;;;;;12.48;4.97;;;;;;;22.38;63.91;101901.50;5044129;28;20044;-61
2023/06/23 07:55:35;;;;;;;12.82;5.60;;;;;;;22.40;63.29;101901.94;5087993;28;20048;-62
2023/06/23 07:58:02;;;;;;;11.23;4.60;;;;;;;22.94;61.33;101902.84;5074707;28;20052;-62
2023/06/23 08:00:30;;;;;;;11.23;4.95;;;;;;;23.29;60.97;101898.78;5061013;28;20056;-62
2023/06/23 08:02:58;;;;;;;10.10;4.45;;;;;;;23.72;59.53;101899.63;5073621;28;20048;-62
2023/06/23 08:05:26;;;;;;;11.20;4.60;;;;;;;23.85;58.23;101901.88;5067343;28;20049;-62
2023/06/23 08:07:53;;;;;;;13.00;5.13;;;;;;;24.16;57.57;101912.09;5071913;28;20045;-66
2023/06/23 08:10:21;;;;;;;10.32;4.40;;;;;;;23.90;57.29;101912.81;5057043;28;20055;-67
2023/06/23 08:12:48;;;;;;;13.23;5.25;;;;;;;23.70;57.27;101914.06;5073435;28;20048;-62
2023/06/23 08:15:16;;;;;;;16.52;5.38;;;;;;;23.24;59.70;101912.31;5073981;28;20071;-67
2023/06/23 08:17:43;;;;;;;13.43;5.50;;;;;;;23.16;59.50;101924.59;5078503;28;20063;-62
2023/06/23 08:20:11;;;;;;;13.13;4.93;;;;;;;23.47;58.71;101918.84;5072692;28;20064;-62
2023/06/23 08:22:40;;;;;;;8.52;4.10;;;;;;;23.68;56.81;101936.13;5074558;28;20044;-68
2023/06/23 08:25:08;;;;;;;10.35;3.72;;;;;;;23.33;58.66;101932.59;5056956;28;20049;-67
2023/06/23 08:27:35;;;;;;;9.32;3.97;;;;;;;23.47;58.46;101924.47;5064124;28;20040;-67
2023/06/23 08:30:03;;;;;;;6.70;3.72;;;;;;;23.21;58.36;101927.94;5074219;28;20064;-66
2023/06/23 08:32:31;;;;;;;6.45;3.95;;;;;;;23.58;58.67;101931.13;5052572;28;20049;-66
2023/06/23 08:34:59;;;;;;;8.13;4.00;;;;;;;23.78;58.09;101926.28;5054338;28;20047;-67
2023/06/23 08:37:27;;;;;;;8.63;3.92;;;;;;;24.04;57.15;101927.19;5068821;28;20059;-67
2023/06/23 08:39:56;;;;;;;7.78;4.00;;;;;;;23.45;59.11;101931.66;5074250;28;20057;-66
2023/06/23 08:42:25;;;;;;;10.52;4.30;;;;;;;23.95;58.48;101937.03;5054119;28;20051;-66
2023/06/23 08:44:55;;;;;;;8.98;3.78;;;;;;;24.29;58.00;101934.06;5070939;28;20067;-61
2023/06/23 08:47:25;;;;;;;7.40;3.95;;;;;;;23.92;57.94;101946.25;5069033;28;20052;-64
2023/06/23 08:49:53;;;;;;;10.10;3.90;;;;;;;24.39;57.33;101930.59;5072665;28;20060;-62
2023/06/23 08:52:20;;;;;;;14.48;4.15;;;;;;;24.07;57.37;101939.69;5061356;28;20407;-62
2023/06/23 08:54:48;;;;;;;7.65;3.88;;;;;;;24.21;55.92;101937.97;5078321;28;20498;-66
2023/06/23 08:57:16;;;;;;;10.00;3.67;;;;;;;24.25;55.77;101938.81;5072464;28;20522;-65
2023/06/23 08:59:43;;;;;;;8.60;3.63;;;;;;;24.30;55.40;101938.47;5078868;28;20079;-66
2023/06/23 09:02:11;;;;;;;9.45;3.67;;;;;;;24.35;55.29;101946.66;5090569;28;20068;-62
2023/06/23 09:04:41;;;;;;;9.18;3.58;;;;;;;24.61;55.09;101942.19;5073401;28;20044;-61
2023/06/23 09:07:08;;;;;;;8.13;3.30;;;;;;;24.33;53.73;101945.38;5072134;28;20059;-62
2023/06/23 09:09:36;;;;;;;8.13;3.47;;;;;;;23.52;56.08;101951.50;5071516;28;20044;-64
2023/06/23 09:12:03;;;;;;;8.65;3.88;;;;;;;23.39;57.22;101948.84;5053080;28;20053;-64
2023/06/23 09:14:31;;;;;;;8.93;3.97;;;;;;;23.83;56.86;101945.66;5073035;28;20056;-62
2023/06/23 09:17:00;;;;;;;8.00;3.30;;;;;;;24.39;55.27;101935.44;5079930;28;20052;-62
2023/06/23 09:19:34;;;;;;;8.40;3.47;;;;;;;24.39;53.56;101938.25;5072557;28;20657;-62
2023/06/23 09:22:02;;;;;;;8.07;3.72;;;;;;;24.32;54.50;101946.59;5088086;28;20298;-63
2023/06/23 09:24:40;;;;;;;9.98;3.60;;;;;;;24.40;54.01;101945.50;5073585;28;20045;-63
2023/06/23 09:27:07;;;;;;;9.27;3.50;;;;;;;24.35;52.49;101951.44;5071755;28;20056;-62
2023/06/23 09:29:37;;;;;;;9.90;3.38;;;;;;;24.19;54.54;101951.59;5070949;28;20053;-61
2023/06/23 09:32:04;;;;;;;8.68;3.45;;;;;;;24.62;53.71;101946.66;5059253;28;20048;-61
2023/06/23 09:34:37;;;;;;;10.77;5.15;;;;;;;24.80;53.74;101942.13;5052946;28;20052;-61
2023/06/23 09:37:16;;;;;;;14.65;4.07;;;;;;;24.76;52.75;101956.16;5053400;28;20056;-62
2023/06/23 09:39:45;;;;;;;10.50;3.90;;;;;;;24.34;52.10;101945.00;5058039;28;20045;-61
2023/06/23 09:42:13;;;;;;;5.63;3.22;;;;;;;24.18;52.78;101944.31;5068075;28;20044;-61
2023/06/23 09:44:45;;;;;;;12.32;3.50;;;;;;;24.70;52.17;101939.97;5059147;28;20548;-62
2023/06/23 09:47:17;;;;;;;11.50;3.78;;;;;;;24.93;50.93;101937.91;5071736;28;20048;-66
2023/06/23 09:49:49;;;;;;;9.88;3.58;;;;;;;25.06;50.17;101939.28;5061300;28;20068;-67
2023/06/23 09:52:30;;;;;;;7.30;3.10;;;;;;;24.38;50.91;101945.06;5052876;28;20056;-66
2023/06/23 09:54:58;;;;;;;5.13;3.00;;;;;;;24.32;51.02;101938.94;5057949;28;20540;-62
2023/06/23 09:57:25;;;;;;;6.47;2.90;;;;;;;24.40;50.96;101937.88;5051251;28;20158;-66
2023/06/23 09:59:53;;;;;;;5.82;2.90;;;;;;;24.47;50.03;101937.97;5065049;28;20075;-66
2023/06/23 10:02:22;;;;;;;6.80;2.80;;;;;;;24.02;51.09;101940.84;5063327;28;20059;-61
2023/06/23 10:04:50;;;;;;;7.07;3.33;;;;;;;24.31;51.15;101933.69;5071364;28;20044;-62
2023/06/23 10:07:22;;;;;;;10.98;3.45;;;;;;;24.20;51.29;101933.50;5066169;28;20067;-61
2023/06/23 10:10:07;;;;;;;8.43;3.08;;;;;;;24.05;51.60;101931.63;5072300;28;20064;-61
2023/06/23 10:12:39;;;;;;;7.10;3.00;;;;;;;24.76;50.76;101935.63;5071016;28;20060;-62
2023/06/23 10:15:08;;;;;;;7.40;2.88;;;;;;;24.30;49.43;101929.25;5062738;28;20044;-67
2023/06/23 10:17:36;;;;;;;8.07;3.08;;;;;;;24.26;50.86;101932.00;5021420;28;20063;-67
2023/06/23 10:20:05;;;;;;;5.28;2.65;;;;;;;24.36;50.05;101933.34;5050326;28;20071;-66
2023/06/23 10:22:36;;;;;;;8.50;3.00;;;;;;;24.88;49.30;101924.13;5058103;28;20053;-67
2023/06/23 10:25:07;;;;;;;11.85;5.82;;;;;;;25.19;48.58;101926.56;5052372;28;20041;-66
2023/06/23 10:27:35;;;;;;;9.38;6.00;;;;;;;25.23;48.35;101921.75;5050921;28;20061;-62
2023/06/23 10:30:04;;;;;;;10.18;5.18;;;;;;;25.35;48.78;101924.34;5050755;28;20060;-62
2023/06/23 10:32:34;;;;;;;13.30;9.55;;;;;;;25.58;47.76;101917.41;5050689;28;20055;-62
2023/06/23 10:35:06;;;;;;;11.85;7.45;;;;;;;25.31;47.98;101927.13;5066436;28;20412;-62
2023/06/23 10:37:34;;;;;;;7.82;4.90;;;;;;;24.70;49.10;101918.25;5059798;28;20063;-68
2023/06/23 10:40:19;;;;;;;7.97;4.15;;;;;;;24.95;48.95;101915.78;5039098;28;20056;-62
2023/06/23 10:42:51;;;;;;;9.00;3.47;;;;;;;24.97;48.06;101921.81;5076127;28;20048;-62
2023/06/23 10:45:18;;;;;;;10.23;3.67;;;;;;;24.50;49.64;101911.03;5058732;28;20059;-63
2023/06/23 10:47:46;;;;;;;7.47;3.63;;;;;;;24.56;50.31;101905.91;5076209;28;20051;-66
2023/06/23 10:50:14;;;;;;;7.43;3.58;;;;;;;24.81;49.32;101910.72;5065895;28;20048;-67
2023/06/23 10:52:44;;;;;;;7.03;3.70;;;;;;;25.11;49.45;101922.00;5056405;28;20068;-67
2023/06/23 10:55:30;;;;;;;9.13;3.72;;;;;;;25.04;47.30;101924.75;5062835;28;20044;-66
2023/06/23 10:58:18;;;;;;;13.27;4.15;;;;;;;24.57;48.05;101921.59;5074780;28;20052;-66
2023/06/23 11:00:55;;;;;;;6.40;3.47;;;;;;;24.41;48.12;101924.56;5054177;28;20045;-67
2023/06/23 11:03:28;;;;;;;10.40;3.70;;;;;;;24.41;48.08;101922.59;5055685;28;20067;-67
2023/06/23 11:05:58;;;;;;;7.15;3.40;;;;;;;24.65;46.79;101918.53;5049027;28;20052;-64
2023/06/23 11:08:31;;;;;;;9.60;4.20;;;;;;;24.75;47.40;101917.91;5067078;28;20037;-65
2023/06/23 11:11:03;;;;;;;9.23;3.67;;;;;;;24.93;47.37;101927.41;5068900;28;20056;-64
2023/06/23 11:13:44;;;;;;;7.60;3.65;;;;;;;24.96;47.31;101925.84;5064853;28;20041;-65
2023/06/23 11:16:34;;;;;;;7.28;3.47;;;;;;;24.77;47.84;101915.53;5070640;28;20048;-65
2023/06/23 11:19:02;;;;;;;6.38;3.75;;;;;;;25.26;47.29;101915.38;5050037;28;20051;-61
2023/06/23 11:21:35;;;;;;;7.60;3.20;;;;;;;25.37;46.41;101910.69;5056244;28;20503;-61
2023/06/23 11:24:19;;;;;;;6.25;3.92;;;;;;;25.35;46.10;101913.88;5054210;28;20605;-61
2023/06/23 11:26:55;;;;;;;4.95;3.25;;;;;;;25.93;45.46;101916.13;5074945;28;20051;-61
2023/06/23 11:29:23;;;;;;;4.72;3.10;;;;;;;25.72;45.99;101910.28;5054459;28;20048;-61
2023/06/23 11:32:06;;;;;;;11.05;4.10;;;;;;;26.22;44.77;101916.00;5057514;28;20041;-61
2023/06/23 11:34:57;;;;;;;8.20;3.35;;;;;;;25.53;44.96;101911.28;5053810;28;20049;-65